Lykens, Ohio
Current Conditions -  °F | °C
As of 10:53 PM on Thursday 18 Dec 2014 (Local Time) from KMNN Reporting Station
Haze Haze  
Wind Chill: 21°   Ceiling: 1000
Heat Index: 28°   Visibility: 5mi
Dew Point: 24°   Wind: 7mph
Humidity: 85%   Direction: 280°W
Pressure: 30.2"   Gusts: NA
Location:  40.9956°N, 82.9974°W
Report Text: KMNN 190353Z AUTO 28006KT 5SM BR OVC010 M02/M04 A3020 RMK AO2 CIG 008V012 SLP241 T10221044 TSNO
Loading
Personal Weather Stations






























Interactive Weather Map New forecast layout! Learn more

10-Day Weather Forecast

Advertisements
Track Severe Weather on mobile